createdAt,value
2019-01-18T00:00:35.095Z,64.66
2019-01-18T00:05:37.583Z,64.65
2019-01-18T00:10:40.051Z,64.53
2019-01-18T00:15:42.515Z,64.52
2019-01-18T00:20:44.997Z,64.43
2019-01-18T00:25:47.449Z,64.63
2019-01-18T00:30:49.908Z,64.57
2019-01-18T00:35:52.357Z,64.52
2019-01-18T00:40:54.801Z,64.40
2019-01-18T00:45:57.247Z,64.30
2019-01-18T00:50:59.710Z,64.40
2019-01-18T00:56:02.183Z,64.32
2019-01-18T01:01:04.626Z,64.27
2019-01-18T01:06:07.070Z,63.73
2019-01-18T01:11:09.559Z,64.08
2019-01-18T01:16:12.023Z,63.78
2019-01-18T01:21:14.480Z,63.44
2019-01-18T01:26:16.923Z,63.32
2019-01-18T01:31:19.390Z,63.26
2019-01-18T01:36:21.838Z,63.26
2019-01-18T01:41:24.287Z,63.13
2019-01-18T01:46:26.739Z,63.04
2019-01-18T01:51:29.193Z,62.71
2019-01-18T01:56:31.641Z,62.33
2019-01-18T02:01:34.089Z,62.39
2019-01-18T02:06:36.540Z,62.42
2019-01-18T02:11:39.002Z,62.78
2019-01-18T02:16:41.478Z,63.10
2019-01-18T02:21:43.931Z,63.61
2019-01-18T02:26:46.390Z,63.97
2019-01-18T02:31:48.852Z,64.03
2019-01-18T02:36:51.293Z,64.21
2019-01-18T02:41:53.731Z,64.73
2019-01-18T02:46:56.244Z,65.01
2019-01-18T02:51:58.691Z,65.30
2019-01-18T02:57:01.145Z,65.51
2019-01-18T03:02:03.622Z,65.48
2019-01-18T03:07:06.080Z,65.65
2019-01-18T03:12:08.525Z,65.77
2019-01-18T03:17:10.969Z,65.83
2019-01-18T03:22:13.423Z,65.72
2019-01-18T03:27:15.890Z,65.74
2019-01-18T03:32:18.340Z,65.62
2019-01-18T03:37:20.781Z,65.56
2019-01-18T03:42:23.272Z,65.53
2019-01-18T03:47:25.897Z,65.51
2019-01-18T03:52:28.373Z,65.79
2019-01-18T03:57:30.819Z,65.53
2019-01-18T04:02:33.284Z,65.46
2019-01-18T04:07:35.759Z,65.47
2019-01-18T04:12:38.220Z,65.46
2019-01-18T04:17:40.678Z,65.76
2019-01-18T04:22:43.154Z,65.81
2019-01-18T04:27:45.617Z,65.72
2019-01-18T04:32:48.059Z,65.48
2019-01-18T04:37:50.509Z,65.43
2019-01-18T04:42:52.958Z,65.62
2019-01-18T04:47:55.417Z,65.48
2019-01-18T04:52:57.885Z,65.52
2019-01-18T04:58:00.360Z,65.64
2019-01-18T05:03:02.825Z,65.64
2019-01-18T05:08:05.265Z,65.59
2019-01-18T05:13:07.737Z,65.66
2019-01-18T05:18:10.208Z,65.61
2019-01-18T05:23:12.667Z,65.54
2019-01-18T05:28:15.141Z,65.64
2019-01-18T05:33:17.591Z,65.91
2019-01-18T05:38:20.109Z,65.83
2019-01-18T05:43:22.568Z,65.97
2019-01-18T05:48:25.025Z,66.00
2019-01-18T05:53:27.488Z,65.90
2019-01-18T05:58:31.218Z,65.86
2019-01-18T06:03:32.394Z,65.90
2019-01-18T06:08:34.850Z,66.27
2019-01-18T06:13:37.307Z,66.28
2019-01-18T06:18:39.760Z,66.33
2019-01-18T06:23:42.211Z,66.45
2019-01-18T06:28:44.659Z,66.41
2019-01-18T06:33:47.155Z,66.38
2019-01-18T06:38:49.608Z,66.37
2019-01-18T06:43:52.874Z,66.47
2019-01-18T06:48:54.522Z,66.82
2019-01-18T06:53:56.992Z,67.06
2019-01-18T06:58:59.459Z,67.15
2019-01-18T07:04:02.005Z,67.27
2019-01-18T07:09:04.460Z,67.63
2019-01-18T07:14:06.925Z,67.42
2019-01-18T07:19:09.394Z,67.37
2019-01-18T07:24:11.861Z,67.54
2019-01-18T07:29:14.339Z,67.68
2019-01-18T07:34:16.799Z,67.60
2019-01-18T07:39:22.450Z,67.41
2019-01-18T07:44:21.742Z,67.97
2019-01-18T07:49:24.208Z,68.72
2019-01-18T07:54:26.640Z,69.47
2019-01-18T07:59:29.110Z,69.42
2019-01-18T08:04:31.579Z,69.59
2019-01-18T08:09:34.148Z,68.91
2019-01-18T08:14:36.627Z,69.30
2019-01-18T08:19:39.119Z,69.14
2019-01-18T08:24:41.551Z,68.92
2019-01-18T08:29:44.005Z,69.12
2019-01-18T08:34:46.464Z,69.32
2019-01-18T08:39:48.911Z,68.48
2019-01-18T08:44:51.370Z,67.89
2019-01-18T08:49:53.851Z,68.25
2019-01-18T08:54:56.329Z,67.71
2019-01-18T08:59:58.788Z,66.50
2019-01-18T09:05:01.239Z,65.42
2019-01-18T09:10:03.843Z,63.11
2019-01-18T09:15:06.290Z,60.87
2019-01-18T09:20:17.730Z,59.61
2019-01-18T09:25:20.183Z,59.88
2019-01-18T09:30:25.314Z,59.19
2019-01-18T09:35:27.788Z,57.64
2019-01-18T09:40:30.254Z,57.92
2019-01-18T09:45:32.691Z,58.24
2019-01-18T09:50:35.164Z,57.82
2019-01-18T09:55:37.635Z,57.87
2019-01-18T10:00:40.096Z,58.44
2019-01-18T10:05:42.561Z,59.91
2019-01-18T10:10:45.060Z,60.92
2019-01-18T10:15:47.489Z,60.83
2019-01-18T10:20:49.963Z,61.35
2019-01-18T10:25:52.414Z,60.90
2019-01-18T10:30:54.914Z,59.99
2019-01-18T10:35:57.382Z,58.44
2019-01-18T10:40:59.836Z,57.99
2019-01-18T10:46:02.300Z,57.48
2019-01-18T10:51:04.753Z,57.14
2019-01-18T10:56:07.204Z,58.00
2019-01-18T11:01:09.678Z,58.39
2019-01-18T11:06:12.120Z,58.21
2019-01-18T11:11:14.574Z,58.74
2019-01-18T11:16:17.015Z,59.25
2019-01-18T11:21:19.494Z,59.52
2019-01-18T11:26:21.953Z,58.81
2019-01-18T11:31:24.478Z,58.22
2019-01-18T11:36:26.896Z,57.70
2019-01-18T11:41:29.381Z,57.81
2019-01-18T11:46:31.847Z,56.68
2019-01-18T11:51:34.305Z,55.76
2019-01-18T11:56:36.747Z,55.23
2019-01-18T12:01:39.207Z,56.30
2019-01-18T12:06:41.669Z,56.68
2019-01-18T12:11:44.134Z,57.35
2019-01-18T12:16:46.613Z,57.20
2019-01-18T12:21:49.056Z,57.31
2019-01-18T12:26:51.516Z,57.21
2019-01-18T12:31:53.979Z,57.49
2019-01-18T12:36:58.909Z,57.45
2019-01-18T12:41:58.911Z,57.69
2019-01-18T12:47:01.375Z,58.07
2019-01-18T12:52:03.884Z,58.02
2019-01-18T12:57:06.330Z,57.76
2019-01-18T13:02:08.787Z,57.75
2019-01-18T13:07:11.242Z,57.76
2019-01-18T13:12:13.709Z,57.63
2019-01-18T13:17:16.172Z,57.13
2019-01-18T13:22:18.643Z,57.57
2019-01-18T13:27:21.108Z,57.80
2019-01-18T13:32:23.670Z,57.49
2019-01-18T13:37:26.123Z,57.79
2019-01-18T13:42:28.634Z,57.81
2019-01-18T13:47:31.085Z,58.06
2019-01-18T13:52:33.626Z,58.55
2019-01-18T13:57:36.138Z,58.51
2019-01-18T14:02:40.624Z,58.14
2019-01-18T14:07:41.057Z,58.16
2019-01-18T14:12:43.621Z,59.20
2019-01-18T14:17:46.095Z,59.11
2019-01-18T14:22:48.553Z,59.93
2019-01-18T14:27:51.005Z,60.59
2019-01-18T14:32:55.706Z,60.95
2019-01-18T14:37:55.929Z,61.07
2019-01-18T14:42:58.392Z,61.64
2019-01-18T14:48:00.885Z,61.90
2019-01-18T14:53:03.352Z,61.82
2019-01-18T14:58:05.837Z,62.48
2019-01-18T15:03:08.288Z,62.78
2019-01-18T15:08:10.769Z,62.88
2019-01-18T15:13:13.248Z,62.98
2019-01-18T15:18:15.717Z,63.38
2019-01-18T15:23:18.180Z,63.51
2019-01-18T15:28:20.644Z,63.73
2019-01-18T15:33:23.108Z,64.25
2019-01-18T15:38:25.573Z,64.51
2019-01-18T15:43:28.063Z,64.89
2019-01-18T15:48:30.524Z,65.29
2019-01-18T15:53:32.996Z,65.41
2019-01-18T15:58:35.463Z,65.86
2019-01-18T16:03:37.922Z,65.78
2019-01-18T16:08:40.372Z,65.78
2019-01-18T16:13:42.972Z,66.39
2019-01-18T16:18:45.412Z,66.52
2019-01-18T16:23:47.888Z,67.19
2019-01-18T16:28:50.374Z,66.81
2019-01-18T16:33:52.822Z,66.83
2019-01-18T16:38:55.278Z,67.37
2019-01-18T16:43:57.900Z,67.67
2019-01-18T16:49:00.373Z,67.58
2019-01-18T16:54:02.901Z,67.93
2019-01-18T16:59:05.320Z,67.45
2019-01-18T17:04:07.795Z,67.75
2019-01-18T17:09:10.252Z,67.57
2019-01-18T17:14:12.753Z,68.02
2019-01-18T17:19:15.227Z,68.06
2019-01-18T17:24:17.698Z,68.59
2019-01-18T17:29:20.230Z,68.49
2019-01-18T17:34:22.628Z,68.35
2019-01-18T17:39:25.091Z,68.61
2019-01-18T17:44:27.570Z,68.88
2019-01-18T17:49:33.214Z,68.88
2019-01-18T17:54:35.702Z,68.91
2019-01-18T17:59:44.014Z,69.01
2019-01-18T18:05:01.597Z,69.17
2019-01-18T18:10:25.102Z,69.36
2019-01-18T18:15:33.267Z,69.27
2019-01-18T18:21:03.258Z,68.85
2019-01-18T18:26:08.183Z,68.72
2019-01-18T18:31:19.614Z,68.93
2019-01-18T18:36:40.118Z,68.93
2019-01-18T18:42:01.217Z,68.93
2019-01-18T18:47:18.698Z,68.90
2019-01-18T18:52:23.834Z,68.95
2019-01-18T18:57:51.080Z,69.25
2019-01-18T19:03:11.944Z,69.55
2019-01-18T19:08:29.416Z,69.70
2019-01-18T19:13:37.579Z,69.51
2019-01-18T19:19:01.664Z,69.33
2019-01-18T19:24:13.257Z,69.68
2019-01-18T19:29:21.325Z,70.06
2019-01-18T19:34:38.933Z,69.73
2019-01-18T19:39:50.491Z,70.11
2019-01-18T19:45:11.525Z,70.35
2019-01-18T19:50:47.936Z,70.57
2019-01-18T19:56:17.604Z,70.50
2019-01-18T20:01:34.981Z,70.32
2019-01-18T20:06:43.235Z,70.61
2019-01-18T20:11:57.453Z,70.71
2019-01-18T20:16:59.920Z,70.73
2019-01-18T20:22:14.667Z,70.93
2019-01-18T20:27:17.509Z,70.86
2019-01-18T20:32:22.315Z,70.91
2019-01-18T20:37:43.200Z,71.14
2019-01-18T20:42:48.443Z,71.16
2019-01-18T20:47:59.840Z,70.67
2019-01-18T20:53:20.930Z,70.79
2019-01-18T20:58:35.520Z,70.57
2019-01-18T21:03:59.572Z,70.33
2019-01-18T21:09:07.903Z,70.06
2019-01-18T21:14:16.415Z,69.74
2019-01-18T21:19:43.421Z,69.72
2019-01-18T21:24:51.642Z,69.40
2019-01-18T21:29:59.894Z,69.10
2019-01-18T21:35:17.331Z,68.87
2019-01-18T21:40:37.849Z,68.79
2019-01-18T21:46:04.987Z,68.71
2019-01-18T21:51:19.420Z,68.76
2019-01-18T21:56:24.773Z,68.75
2019-01-18T22:01:39.227Z,68.67
2019-01-18T22:07:00.437Z,68.74
2019-01-18T22:12:30.097Z,68.96
2019-01-18T22:17:44.358Z,68.80
2019-01-18T22:22:46.929Z,68.91
2019-01-18T22:27:58.341Z,68.96
2019-01-18T22:33:00.859Z,69.10
2019-01-18T22:38:06.160Z,69.34
2019-01-18T22:43:20.652Z,69.39
2019-01-18T22:48:47.402Z,69.59
2019-01-18T22:53:52.540Z,69.60
2019-01-18T22:59:16.262Z,69.62
2019-01-18T23:04:24.557Z,69.71
2019-01-18T23:09:38.805Z,69.59
2019-01-18T23:14:50.224Z,69.37
2019-01-18T23:19:55.630Z,69.52
2019-01-18T23:24:58.106Z,69.38
2019-01-18T23:30:09.313Z,69.43
2019-01-18T23:35:23.618Z,69.44
2019-01-18T23:40:56.958Z,69.28
2019-01-18T23:46:20.878Z,69.23
2019-01-18T23:51:44.405Z,69.16
2019-01-18T23:57:07.915Z,69.04
